createdAt,value
2022-10-17T00:00:48.931Z,101028.19
2022-10-17T00:03:17.939Z,101030.28
2022-10-17T00:05:47.244Z,101022.69
2022-10-17T00:08:16.310Z,101023.31
2022-10-17T00:10:44.244Z,101017.44
2022-10-17T00:13:12.455Z,101026.69
2022-10-17T00:15:44.356Z,101033.72
2022-10-17T00:18:11.929Z,101023.03
2022-10-17T00:20:40.832Z,101027.97
2022-10-17T00:23:08.323Z,101027.38
2022-10-17T00:25:36.916Z,101031.94
2022-10-17T00:28:04.667Z,101019.56
2022-10-17T00:30:32.775Z,101011.44
2022-10-17T00:33:00.278Z,101020.88
2022-10-17T00:35:27.899Z,101012.16
2022-10-17T00:37:56.744Z,101023.97
2022-10-17T00:40:24.279Z,101010.47
2022-10-17T00:42:53.080Z,101019.44
2022-10-17T00:45:24.753Z,101029.44
2022-10-17T00:47:55.968Z,101017.59
2022-10-17T00:50:23.653Z,101016.34
2022-10-17T00:52:51.564Z,101009.66
2022-10-17T00:55:23.679Z,101012.84
2022-10-17T00:57:51.932Z,100988.63
2022-10-17T01:00:20.407Z,101000.94
2022-10-17T01:02:48.362Z,100974.09
2022-10-17T01:05:17.336Z,100982.97
2022-10-17T01:07:45.740Z,100983.81
2022-10-17T01:10:14.173Z,100978.41
2022-10-17T01:12:53.447Z,100987.13
2022-10-17T01:15:27.620Z,100985.91
2022-10-17T01:18:05.039Z,100986.78
2022-10-17T01:21:09.884Z,100985.38
2022-10-17T01:24:15.001Z,100988.22
2022-10-17T01:27:12.831Z,100973.81
2022-10-17T01:29:58.886Z,100978.63
2022-10-17T01:32:32.570Z,100988.22
2022-10-17T01:35:03.555Z,100994.78
2022-10-17T01:37:34.417Z,100969.91
2022-10-17T01:40:05.680Z,100979.88
2022-10-17T01:42:36.836Z,100970.88
2022-10-17T01:45:08.220Z,100977.91
2022-10-17T01:47:37.097Z,100974.34
2022-10-17T01:50:08.634Z,100964.84
2022-10-17T01:52:39.674Z,100971.91
2022-10-17T01:55:09.293Z,100968.03
2022-10-17T01:57:40.104Z,100971.53
2022-10-17T02:00:11.034Z,100965.41
2022-10-17T02:02:40.439Z,100963.25
2022-10-17T02:05:09.054Z,100959.56
2022-10-17T02:07:36.584Z,100956.06
2022-10-17T02:10:05.951Z,100957.66
2022-10-17T02:12:37.983Z,100944.28
2022-10-17T02:15:22.542Z,100949.22
2022-10-17T02:17:59.292Z,100933.81
2022-10-17T02:20:32.400Z,100938.06
2022-10-17T02:23:04.399Z,100927.16
2022-10-17T02:25:37.226Z,100944.81
2022-10-17T02:28:15.467Z,100942.88
2022-10-17T02:30:45.298Z,100942.66
2022-10-17T02:33:18.040Z,100945.53
2022-10-17T02:35:48.561Z,100940.69
2022-10-17T02:38:16.349Z,100936.31
2022-10-17T02:40:44.014Z,100923.88
2022-10-17T02:43:11.833Z,100929.69
2022-10-17T02:45:39.991Z,100920.09
2022-10-17T02:48:10.712Z,100910.84
2022-10-17T02:50:46.404Z,100917.75
2022-10-17T02:53:16.640Z,100925.63
2022-10-17T02:55:48.871Z,100923.13
2022-10-17T02:58:20.560Z,100912.97
2022-10-17T03:00:48.291Z,100925.44
2022-10-17T03:03:23.979Z,100902.63
2022-10-17T03:05:53.323Z,100907.44
2022-10-17T03:08:21.087Z,100923.75
2022-10-17T03:10:49.049Z,100913.34
2022-10-17T03:13:16.576Z,100920.56
2022-10-17T03:15:44.294Z,100905.31
2022-10-17T03:18:12.008Z,100922.25
2022-10-17T03:20:39.534Z,100923.91
2022-10-17T03:23:08.575Z,100925.41
2022-10-17T03:25:38.327Z,100920.47
2022-10-17T03:28:06.180Z,100924.38
2022-10-17T03:30:34.444Z,100935.50
2022-10-17T03:33:02.094Z,100932.84
2022-10-17T03:35:29.574Z,100916.06
2022-10-17T03:37:57.271Z,100917.75
2022-10-17T03:40:26.260Z,100929.41
2022-10-17T03:42:53.737Z,100912.75
2022-10-17T03:45:21.230Z,100922.41
2022-10-17T03:47:48.744Z,100914.47
2022-10-17T03:50:16.447Z,100928.25
2022-10-17T03:52:47.503Z,100929.97
2022-10-17T03:55:15.190Z,100934.00
2022-10-17T03:57:46.499Z,100934.72
2022-10-17T04:00:14.633Z,100919.00
2022-10-17T04:02:42.411Z,100915.03
2022-10-17T04:05:10.320Z,100915.91
2022-10-17T04:07:37.845Z,100920.00
2022-10-17T04:10:06.119Z,100927.75
2022-10-17T04:12:33.680Z,100930.53
2022-10-17T04:15:02.538Z,100930.06
2022-10-17T04:17:35.817Z,100938.38
2022-10-17T04:20:06.511Z,100932.56
2022-10-17T04:22:34.033Z,100930.84
2022-10-17T04:25:01.378Z,100934.44
2022-10-17T04:27:28.718Z,100931.50
2022-10-17T04:29:56.063Z,100938.38
2022-10-17T04:32:25.789Z,100943.13
2022-10-17T04:34:53.267Z,100931.56
2022-10-17T04:37:21.428Z,100919.06
2022-10-17T04:39:49.017Z,100919.41
2022-10-17T04:42:16.394Z,100935.97
2022-10-17T04:44:43.813Z,100939.63
2022-10-17T04:47:11.303Z,100906.72
2022-10-17T04:52:07.328Z,100920.53
2022-10-17T04:54:34.700Z,100907.69
2022-10-17T04:57:02.147Z,100917.44
2022-10-17T04:59:29.667Z,100910.41
2022-10-17T05:01:57.126Z,100898.06
2022-10-17T05:04:25.295Z,100907.75
2022-10-17T05:06:54.110Z,100907.22
2022-10-17T05:09:21.596Z,100910.91
2022-10-17T05:11:49.009Z,100918.69
2022-10-17T05:14:16.674Z,100916.41
2022-10-17T05:16:44.113Z,100902.63
2022-10-17T05:19:11.974Z,100898.72
2022-10-17T05:21:39.310Z,100909.69
2022-10-17T05:24:08.475Z,100904.06
2022-10-17T05:26:35.867Z,100918.97
2022-10-17T05:29:04.267Z,100923.56
2022-10-17T05:31:31.901Z,100931.56
2022-10-17T05:34:01.344Z,100935.13
2022-10-17T05:36:28.989Z,100915.63
2022-10-17T05:38:56.421Z,100919.13
2022-10-17T05:41:25.100Z,100924.19
2022-10-17T05:43:52.474Z,100933.75
2022-10-17T05:46:19.911Z,100938.38
2022-10-17T05:48:47.489Z,100931.38
2022-10-17T05:51:14.894Z,100933.38
2022-10-17T05:53:42.516Z,100941.44
2022-10-17T05:56:10.489Z,100940.22
2022-10-17T05:58:49.812Z,100948.75
2022-10-17T06:01:18.411Z,100951.63
2022-10-17T06:03:45.817Z,100964.63
2022-10-17T06:06:14.576Z,100955.50
2022-10-17T06:08:41.945Z,100967.88
2022-10-17T06:11:10.488Z,100958.91
2022-10-17T06:13:39.608Z,100960.50
2022-10-17T06:16:07.377Z,100951.00
2022-10-17T06:18:34.910Z,100953.72
2022-10-17T06:21:05.939Z,100961.19
2022-10-17T06:23:33.457Z,100965.25
2022-10-17T06:26:00.918Z,100977.75
2022-10-17T06:28:28.362Z,100974.91
2022-10-17T06:30:57.117Z,100979.31
2022-10-17T06:33:24.835Z,100994.69
2022-10-17T06:35:52.756Z,100998.03
2022-10-17T06:38:20.312Z,100996.34
2022-10-17T06:40:47.739Z,100994.69
2022-10-17T06:43:15.132Z,100996.91
2022-10-17T06:45:42.534Z,100990.81
2022-10-17T06:48:11.280Z,100988.19
2022-10-17T06:50:38.619Z,100984.81
2022-10-17T06:53:06.192Z,100993.25
2022-10-17T06:55:33.768Z,100985.25
2022-10-17T06:58:01.230Z,100992.09
2022-10-17T07:00:28.662Z,100995.41
2022-10-17T07:02:55.998Z,100999.59
2022-10-17T07:05:24.733Z,100988.66
2022-10-17T07:07:52.162Z,100995.13
2022-10-17T07:10:19.622Z,100992.00
2022-10-17T07:12:46.995Z,100985.50
2022-10-17T07:15:14.383Z,101002.88
2022-10-17T07:17:41.710Z,100994.19
2022-10-17T07:20:09.846Z,101002.78
2022-10-17T07:22:38.546Z,100997.69
2022-10-17T07:25:06.403Z,101022.25
2022-10-17T07:27:33.907Z,101019.38
2022-10-17T07:30:01.390Z,101020.53
2022-10-17T07:32:28.779Z,101024.28
2022-10-17T07:34:56.108Z,101036.13
2022-10-17T07:37:23.554Z,101028.44
2022-10-17T07:39:52.377Z,101020.44
2022-10-17T07:42:19.740Z,101018.66
2022-10-17T07:44:47.468Z,101032.53
2022-10-17T07:47:14.866Z,101035.44
2022-10-17T07:49:42.436Z,101033.03
2022-10-17T07:52:10.309Z,101032.16
2022-10-17T07:54:37.642Z,101042.78
2022-10-17T07:57:06.416Z,101042.63
2022-10-17T07:59:34.102Z,101024.28
2022-10-17T08:02:01.591Z,101034.16
2022-10-17T08:04:29.106Z,101048.69
2022-10-17T08:07:05.398Z,101049.00
2022-10-17T08:09:39.288Z,101040.38
2022-10-17T08:12:08.281Z,101035.06
2022-10-17T08:14:35.666Z,101037.00
2022-10-17T08:17:04.551Z,101038.72
2022-10-17T08:19:32.017Z,101043.50
2022-10-17T08:21:59.411Z,101056.66
2022-10-17T08:24:26.932Z,101040.13
2022-10-17T08:26:56.687Z,101045.31
2022-10-17T08:29:25.460Z,101040.25
2022-10-17T08:31:58.514Z,101046.53
2022-10-17T08:34:29.128Z,101027.66
2022-10-17T08:36:56.682Z,101028.34
2022-10-17T08:39:24.168Z,101044.28
2022-10-17T08:41:55.207Z,101043.59
2022-10-17T08:44:26.611Z,101050.84
2022-10-17T08:46:54.868Z,101045.13
2022-10-17T08:49:24.227Z,101055.03
2022-10-17T08:51:52.714Z,101063.31
2022-10-17T08:54:21.439Z,101073.25
2022-10-17T08:56:50.344Z,101070.53
2022-10-17T08:59:19.190Z,101079.13
2022-10-17T09:01:49.646Z,101082.91
2022-10-17T09:04:33.132Z,101082.25
2022-10-17T09:07:02.197Z,101091.94
2022-10-17T09:09:33.733Z,101112.69
2022-10-17T09:12:04.670Z,101121.47
2022-10-17T09:14:47.152Z,101128.22
2022-10-17T09:17:19.952Z,101138.66
2022-10-17T09:19:50.106Z,101125.31
2022-10-17T09:22:18.302Z,101136.88
2022-10-17T09:24:46.704Z,101133.69
2022-10-17T09:27:23.274Z,101140.28
2022-10-17T09:29:51.727Z,101136.25
2022-10-17T09:32:21.852Z,101109.75
2022-10-17T09:34:49.751Z,101132.66
2022-10-17T09:37:17.547Z,101146.69
2022-10-17T09:39:45.100Z,101146.50
2022-10-17T09:42:13.508Z,101149.69
2022-10-17T09:44:41.663Z,101158.06
2022-10-17T09:47:13.434Z,101153.75
2022-10-17T09:49:42.732Z,101160.31
2022-10-17T09:52:12.054Z,101202.88
2022-10-17T09:54:42.536Z,101263.81
2022-10-17T09:57:10.710Z,101191.41
2022-10-17T09:59:39.060Z,101192.78
2022-10-17T10:02:08.933Z,101198.81
2022-10-17T10:04:59.763Z,101198.25
2022-10-17T10:07:29.140Z,101188.50
2022-10-17T10:09:56.932Z,101197.06
2022-10-17T10:12:25.091Z,101207.06
2022-10-17T10:14:54.751Z,101192.34
2022-10-17T10:17:30.170Z,101201.72
2022-10-17T10:19:57.719Z,101194.75
2022-10-17T10:22:26.753Z,101179.66
2022-10-17T10:25:12.361Z,101190.31
2022-10-17T10:27:40.178Z,101243.72
2022-10-17T10:30:07.855Z,101250.81
2022-10-17T10:32:36.098Z,101266.22
2022-10-17T10:35:04.567Z,101255.56
2022-10-17T10:37:34.943Z,101293.53
2022-10-17T10:40:02.824Z,101314.78
2022-10-17T10:42:31.143Z,101312.44
2022-10-17T10:44:59.549Z,101307.09
2022-10-17T10:47:28.439Z,101288.06
2022-10-17T10:50:08.504Z,101280.09
2022-10-17T10:52:38.873Z,101243.09
2022-10-17T10:55:11.260Z,101205.91
2022-10-17T10:57:38.625Z,101184.69
2022-10-17T11:00:07.516Z,101176.03
2022-10-17T11:02:36.654Z,101178.94
2022-10-17T11:05:05.220Z,101185.09
2022-10-17T11:07:33.893Z,101200.50
2022-10-17T11:10:04.739Z,101226.56
2022-10-17T11:12:33.479Z,101207.13
2022-10-17T11:15:03.386Z,101218.50
2022-10-17T11:17:33.368Z,101231.00
2022-10-17T11:20:04.160Z,101240.47
2022-10-17T11:22:32.732Z,101250.91
2022-10-17T11:25:00.746Z,101260.88
2022-10-17T11:27:30.320Z,101246.38
2022-10-17T11:29:58.054Z,101252.38
2022-10-17T11:32:27.800Z,101280.28
2022-10-17T11:34:55.783Z,101273.06
2022-10-17T11:37:24.144Z,101280.41
2022-10-17T11:39:52.477Z,101283.84
2022-10-17T11:42:20.970Z,101293.72
2022-10-17T11:44:49.992Z,101293.66
2022-10-17T11:47:21.012Z,101284.69
2022-10-17T11:49:50.964Z,101286.44
2022-10-17T11:52:43.882Z,101294.41
2022-10-17T11:55:12.232Z,101277.94
2022-10-17T11:57:43.255Z,101298.34
2022-10-17T12:00:21.445Z,101303.72
2022-10-17T12:02:51.137Z,101312.06
2022-10-17T12:05:20.797Z,101307.94
2022-10-17T12:07:49.229Z,101316.25
2022-10-17T12:10:23.263Z,101317.81
2022-10-17T12:12:50.706Z,101323.88
2022-10-17T12:15:31.710Z,101324.59
2022-10-17T12:18:01.507Z,101330.16
2022-10-17T12:20:32.901Z,101328.84
2022-10-17T12:23:02.535Z,101323.22
2022-10-17T12:25:32.076Z,101319.41
2022-10-17T12:28:17.363Z,101321.47
2022-10-17T12:30:51.496Z,101319.84
2022-10-17T12:33:22.565Z,101323.66
2022-10-17T12:35:50.955Z,101318.00
2022-10-17T12:38:28.304Z,101329.88
2022-10-17T12:40:57.056Z,101332.91
2022-10-17T12:43:57.618Z,101329.31
2022-10-17T12:46:54.993Z,101342.50
2022-10-17T12:49:25.402Z,101342.66
2022-10-17T12:52:06.471Z,101348.88
2022-10-17T12:54:46.995Z,101337.84
2022-10-17T12:57:21.719Z,101344.16
2022-10-17T12:59:49.147Z,101342.63
2022-10-17T13:02:18.337Z,101347.31
2022-10-17T13:04:47.070Z,101343.19
2022-10-17T13:07:17.191Z,101349.19
2022-10-17T13:09:44.721Z,101344.81
2022-10-17T13:12:13.930Z,101362.81
2022-10-17T13:14:41.595Z,101342.38
2022-10-17T13:17:21.979Z,101346.94
2022-10-17T13:19:50.736Z,101356.41
2022-10-17T13:22:18.647Z,101363.84
2022-10-17T13:24:46.203Z,101364.00
2022-10-17T13:27:24.139Z,101355.53
2022-10-17T13:29:51.519Z,101364.59
2022-10-17T13:32:18.874Z,101363.06
2022-10-17T13:34:46.217Z,101362.59
2022-10-17T13:37:15.525Z,101365.16
2022-10-17T13:39:55.343Z,101365.50
2022-10-17T13:42:24.840Z,101372.31
2022-10-17T13:44:52.576Z,101369.69
2022-10-17T13:47:23.278Z,101379.06
2022-10-17T13:49:55.036Z,101376.44
2022-10-17T13:52:24.759Z,101376.47
2022-10-17T13:54:53.519Z,101386.91
2022-10-17T13:57:21.865Z,101382.38
2022-10-17T13:59:50.553Z,101391.44
2022-10-17T14:02:18.448Z,101391.38
2022-10-17T14:05:15.287Z,101397.19
2022-10-17T14:07:58.098Z,101409.03
2022-10-17T14:10:24.549Z,101403.09
2022-10-17T14:12:51.997Z,101404.34
2022-10-17T14:15:19.422Z,101403.53
2022-10-17T14:17:46.775Z,101402.56
2022-10-17T14:23:26.918Z,101398.63
2022-10-17T14:26:04.564Z,101397.59
2022-10-17T14:28:31.975Z,101407.44
2022-10-17T14:31:09.850Z,101406.28
2022-10-17T14:33:39.935Z,101422.78
2022-10-17T14:36:10.216Z,101412.53
2022-10-17T14:38:38.922Z,101410.28
2022-10-17T14:41:40.891Z,101422.84
2022-10-17T14:43:55.558Z,101416.94
2022-10-17T14:46:22.892Z,101417.69
2022-10-17T14:48:53.195Z,101424.47
2022-10-17T14:51:20.545Z,101431.63
2022-10-17T14:54:05.293Z,101435.41
2022-10-17T14:56:37.704Z,101433.25
2022-10-17T14:59:07.553Z,101450.47
2022-10-17T15:01:38.529Z,101444.09
2022-10-17T15:04:06.205Z,101451.28
2022-10-17T15:06:34.471Z,101447.41
2022-10-17T15:09:04.422Z,101465.75
2022-10-17T15:11:33.078Z,101465.97
2022-10-17T15:14:02.796Z,101479.34
2022-10-17T15:16:31.783Z,101480.94
2022-10-17T15:18:59.147Z,101488.34
2022-10-17T15:21:38.464Z,101494.41
2022-10-17T15:24:10.695Z,101490.47
2022-10-17T15:26:38.044Z,101500.28
2022-10-17T15:29:05.596Z,101503.28
2022-10-17T15:31:33.200Z,101493.31
2022-10-17T15:34:00.568Z,101497.03
2022-10-17T15:36:29.143Z,101496.69
2022-10-17T15:38:57.024Z,101496.13
2022-10-17T15:41:26.318Z,101494.56
2022-10-17T15:43:53.643Z,101504.03
2022-10-17T15:46:22.630Z,101497.97
2022-10-17T15:48:50.003Z,101512.59
2022-10-17T15:51:17.403Z,101507.19
2022-10-17T15:53:44.839Z,101505.25
2022-10-17T15:56:16.600Z,101498.09
2022-10-17T15:58:45.415Z,101497.09
2022-10-17T16:01:12.924Z,101493.47
2022-10-17T16:03:40.333Z,101496.63
2022-10-17T16:06:10.757Z,101493.72
2022-10-17T16:08:41.329Z,101500.03
2022-10-17T16:11:10.263Z,101494.69
2022-10-17T16:13:41.395Z,101499.06
2022-10-17T16:16:11.489Z,101498.09
2022-10-17T16:18:38.900Z,101494.63
2022-10-17T16:21:06.463Z,101504.88
2022-10-17T16:23:33.783Z,101506.59
2022-10-17T16:26:01.272Z,101507.22
2022-10-17T16:28:28.675Z,101515.16
2022-10-17T16:30:56.061Z,101513.19
2022-10-17T16:33:24.739Z,101515.34
2022-10-17T16:35:52.300Z,101514.06
2022-10-17T16:38:19.663Z,101514.25
2022-10-17T16:40:47.059Z,101532.63
2022-10-17T16:43:14.594Z,101527.41
2022-10-17T16:45:41.968Z,101533.59
2022-10-17T16:48:09.546Z,101526.63
2022-10-17T16:50:40.803Z,101535.63
2022-10-17T16:53:08.167Z,101532.31
2022-10-17T16:55:35.816Z,101549.81
2022-10-17T16:58:03.175Z,101554.44
2022-10-17T17:00:30.692Z,101562.88
2022-10-17T17:02:58.126Z,101561.22
2022-10-17T17:05:25.466Z,101566.00
2022-10-17T17:07:55.718Z,101575.88
2022-10-17T17:10:23.115Z,101587.69
2022-10-17T17:12:50.514Z,101597.75
2022-10-17T17:15:17.917Z,101600.09
2022-10-17T17:17:50.567Z,101598.66
2022-10-17T17:20:19.729Z,101595.47
2022-10-17T17:22:47.092Z,101601.47
2022-10-17T17:25:15.808Z,101598.03
2022-10-17T17:27:43.167Z,101600.97
2022-10-17T17:30:10.968Z,101606.97
2022-10-17T17:32:38.329Z,101602.81
2022-10-17T17:35:05.997Z,101607.38
2022-10-17T17:37:33.515Z,101600.53
2022-10-17T17:40:01.004Z,101611.72
2022-10-17T17:42:29.710Z,101609.91
2022-10-17T17:44:57.078Z,101604.22
2022-10-17T17:47:24.414Z,101605.94
2022-10-17T17:49:51.767Z,101596.88
2022-10-17T17:52:19.170Z,101599.84
2022-10-17T17:54:46.521Z,101594.59
2022-10-17T17:57:13.877Z,101600.06
2022-10-17T17:59:42.561Z,101606.72
2022-10-17T18:02:10.576Z,101610.63
2022-10-17T18:04:38.084Z,101616.66
2022-10-17T18:07:05.442Z,101621.53
2022-10-17T18:09:32.937Z,101620.81
2022-10-17T18:14:49.813Z,101633.81
2022-10-17T18:17:17.251Z,101639.72
2022-10-17T18:19:44.663Z,101641.31
2022-10-17T18:22:12.113Z,101651.50
2022-10-17T18:24:39.495Z,101645.00
2022-10-17T18:27:06.832Z,101643.94
2022-10-17T18:29:34.365Z,101637.59
2022-10-17T18:32:03.054Z,101642.22
2022-10-17T18:34:30.382Z,101646.81
2022-10-17T18:36:58.905Z,101645.25
2022-10-17T18:39:26.287Z,101652.16
2022-10-17T18:41:53.784Z,101651.59
2022-10-17T18:44:21.211Z,101659.03
2022-10-17T18:46:48.710Z,101659.72
2022-10-17T18:49:19.305Z,101645.94
2022-10-17T18:51:46.675Z,101657.63
2022-10-17T18:54:16.647Z,101659.25
2022-10-17T18:56:44.922Z,101665.81
2022-10-17T18:59:12.267Z,101673.13
2022-10-17T19:01:39.790Z,101674.97
2022-10-17T19:04:07.162Z,101669.00
2022-10-17T19:06:35.904Z,101660.44
2022-10-17T19:09:04.562Z,101660.69
2022-10-17T19:11:32.329Z,101665.56
2022-10-17T19:14:00.273Z,101676.88
2022-10-17T19:16:28.379Z,101672.28
2022-10-17T19:18:56.414Z,101664.28
2022-10-17T19:21:23.791Z,101663.13
2022-10-17T19:23:53.451Z,101666.41
2022-10-17T19:26:21.152Z,101672.28
2022-10-17T19:28:48.798Z,101671.53
2022-10-17T19:31:17.947Z,101683.50
2022-10-17T19:33:45.895Z,101690.31
2022-10-17T19:36:13.760Z,101693.16
2022-10-17T19:38:41.168Z,101687.78
2022-10-17T19:41:10.556Z,101691.59
2022-10-17T19:43:38.214Z,101687.44
2022-10-17T19:46:06.270Z,101692.00
2022-10-17T19:48:33.998Z,101700.59
2022-10-17T19:51:01.366Z,101700.91
2022-10-17T19:53:29.454Z,101702.84
2022-10-17T19:55:56.922Z,101710.44
2022-10-17T19:58:25.796Z,101713.97
2022-10-17T20:00:54.372Z,101726.66
2022-10-17T20:03:21.886Z,101726.75
2022-10-17T20:05:49.239Z,101740.22
2022-10-17T20:08:16.802Z,101741.91
2022-10-17T20:10:44.342Z,101747.81
2022-10-17T20:13:11.716Z,101743.09
2022-10-17T20:15:40.846Z,101752.59
2022-10-17T20:18:09.222Z,101751.81
2022-10-17T20:20:37.583Z,101753.56
2022-10-17T20:23:05.697Z,101754.31
2022-10-17T20:25:34.451Z,101762.19
2022-10-17T20:28:01.986Z,101772.88
2022-10-17T20:30:29.572Z,101777.72
2022-10-17T20:32:58.438Z,101784.00
2022-10-17T20:35:26.017Z,101779.66
2022-10-17T20:37:53.785Z,101778.59
2022-10-17T20:40:34.639Z,101791.66
2022-10-17T20:43:03.251Z,101791.88
2022-10-17T20:45:44.237Z,101786.53
2022-10-17T20:48:20.209Z,101786.69
2022-10-17T20:50:47.749Z,101785.91
2022-10-17T20:53:35.959Z,101769.88
2022-10-17T20:56:06.960Z,101780.56
2022-10-17T20:58:34.512Z,101792.63
2022-10-17T21:01:07.086Z,101791.03
2022-10-17T21:03:39.806Z,101806.41
2022-10-17T21:06:10.633Z,101791.78
2022-10-17T21:08:38.185Z,101796.59
2022-10-17T21:11:13.442Z,101806.00
2022-10-17T21:13:41.651Z,101811.00
2022-10-17T21:16:10.850Z,101809.53
2022-10-17T21:18:39.916Z,101819.63
2022-10-17T21:21:11.841Z,101823.28
2022-10-17T21:23:39.984Z,101828.09
2022-10-17T21:26:09.407Z,101820.72
2022-10-17T21:28:37.646Z,101828.59
2022-10-17T21:31:13.463Z,101837.69
2022-10-17T21:33:43.954Z,101825.97
2022-10-17T21:36:13.405Z,101828.47
2022-10-17T21:38:41.615Z,101831.28
2022-10-17T21:41:10.309Z,101829.44
2022-10-17T21:43:38.442Z,101822.81
2022-10-17T21:46:07.721Z,101823.88
2022-10-17T21:48:35.258Z,101837.00
2022-10-17T21:51:06.143Z,101833.91
2022-10-17T21:53:34.446Z,101832.53
2022-10-17T21:56:02.864Z,101830.97
2022-10-17T21:58:30.959Z,101824.66
2022-10-17T22:01:05.813Z,101836.47
2022-10-17T22:03:34.860Z,101840.63
2022-10-17T22:06:12.837Z,101843.56
2022-10-17T22:08:51.873Z,101838.31
2022-10-17T22:11:21.531Z,101845.19
2022-10-17T22:13:49.177Z,101840.69
2022-10-17T22:16:17.596Z,101838.50
2022-10-17T22:18:45.111Z,101830.91
2022-10-17T22:21:15.524Z,101830.41
2022-10-17T22:23:43.555Z,101833.84
2022-10-17T22:26:11.451Z,101847.25
2022-10-17T22:28:39.647Z,101843.13
2022-10-17T22:31:07.228Z,101849.78
2022-10-17T22:33:35.403Z,101852.50
2022-10-17T22:36:03.520Z,101838.84
2022-10-17T22:38:32.431Z,101848.63
2022-10-17T22:40:59.981Z,101839.84
2022-10-17T22:43:27.891Z,101828.38
2022-10-17T22:45:56.302Z,101834.91
2022-10-17T22:48:24.436Z,101827.69
2022-10-17T22:50:52.813Z,101829.28
2022-10-17T22:53:24.620Z,101832.63
2022-10-17T22:55:54.534Z,101830.97
2022-10-17T22:58:22.677Z,101836.00
2022-10-17T23:00:50.513Z,101833.50
2022-10-17T23:03:18.726Z,101842.28
2022-10-17T23:05:46.286Z,101836.19
2022-10-17T23:08:14.678Z,101837.63
2022-10-17T23:10:42.900Z,101836.66
2022-10-17T23:13:11.900Z,101836.34
2022-10-17T23:15:39.495Z,101838.47
2022-10-17T23:18:07.608Z,101832.00
2022-10-17T23:20:35.137Z,101843.91
2022-10-17T23:23:02.653Z,101840.88
2022-10-17T23:25:30.309Z,101846.94
2022-10-17T23:27:57.832Z,101848.78
2022-10-17T23:30:27.135Z,101840.03
2022-10-17T23:32:54.787Z,101840.66
2022-10-17T23:35:22.324Z,101843.44
2022-10-17T23:37:49.806Z,101842.66
2022-10-17T23:40:17.519Z,101841.09
2022-10-17T23:42:45.014Z,101845.25
2022-10-17T23:45:12.826Z,101847.34
2022-10-17T23:47:41.701Z,101837.50
2022-10-17T23:50:09.341Z,101844.00
2022-10-17T23:52:36.851Z,101851.47
2022-10-17T23:55:04.835Z,101855.84
2022-10-17T23:57:32.763Z,101855.97
